»·PEaware :: N343B KSMX-KBFL

N343B :: KSMX-KBFL

FLIGHT INFORMATION

Flight Status: Arrived
Operator: Privately registered:
United States
More flights under this callsign
Pilot: Corey G. (17774)
Aircraft: CESSNA T210 TURBO CENTURION
(T210)
More flights by this aircraft type
Origin: KSMX Santa Maria Pub/Capt Hancock
United States
Destination: KBFL Meadows
United States
More flights between these airports :: More routes between these airports
Route: KSMX DIRECT KBLF
File this flight plan on PilotEdge
Remarks: CAT - 05 CERT
Altitude:
(Current/Filed)
7,500ft
Speed:
(Current/Filed)
150kts
Departed: 05-Jan-18 08:55 AM
Arrived: 05-Jan-18 09:34 AM
Distance/Time
Traveled:
76nm/0:39
Distance/Time
To Go:
Arrived

Flight Plot

Page will automatically refresh every two minutes.

Flight plan parsing failed; only flown route is shown


Map Options




Map Legend


Flown Route
Filed Route
Departure Airport
Arrival Airport
Navaid (VOR, NDB)
Fix

Horizontal Profiles

Position Reports

Time Latitude Longitude Heading Altitude Ground
Speed
05-Jan-18 08:41 34.901386 -120.450786 154 265ft 0kts
05-Jan-18 08:42 34.901386 -120.450786 154 265ft 0kts
05-Jan-18 08:43 34.901386 -120.450786 154 265ft 0kts
05-Jan-18 08:44 34.901385 -120.450786 154 265ft 0kts
05-Jan-18 08:45 34.901385 -120.450786 154 265ft 0kts
05-Jan-18 08:46 34.901385 -120.450786 154 265ft 0kts
05-Jan-18 08:47 34.901385 -120.450786 154 265ft 0kts
05-Jan-18 08:48 34.901385 -120.450786 154 265ft 0kts
05-Jan-18 08:49 34.901385 -120.450786 154 265ft 0kts
05-Jan-18 08:50 34.901385 -120.450786 154 265ft 0kts
05-Jan-18 08:51 34.901385 -120.450786 154 265ft 0kts
05-Jan-18 08:52 34.901385 -120.450786 154 265ft 0kts
05-Jan-18 08:53 34.901385 -120.450786 154 265ft 0kts
05-Jan-18 08:54 34.901385 -120.450786 154 265ft 0kts
05-Jan-18 08:55 34.901385 -120.450786 154 265ft 0kts
05-Jan-18 08:56 34.901339 -120.450750 143 265ft 7kts
05-Jan-18 08:57 34.899261 -120.451019 135 265ft 11kts
05-Jan-18 08:58 34.896292 -120.447473 138 265ft 21kts
05-Jan-18 08:59 34.893418 -120.444926 180 265ft 7kts
05-Jan-18 09:00 34.893224 -120.444936 182 265ft 0kts
05-Jan-18 09:01 34.895673 -120.449258 315 266ft 79kts
05-Jan-18 09:02 34.916370 -120.468582 358 1144ft 105kts
05-Jan-18 09:03 34.944888 -120.449761 43 1165ft 119kts
05-Jan-18 09:04 34.965359 -120.417755 52 1156ft 126kts
05-Jan-18 09:05 34.986857 -120.383614 52 1449ft 121kts
05-Jan-18 09:06 35.004265 -120.353922 55 2304ft 99kts
05-Jan-18 09:07 35.018688 -120.327520 55 3183ft 90kts
05-Jan-18 09:08 35.030144 -120.301101 66 3991ft 93kts
05-Jan-18 09:09 35.040678 -120.270425 66 4677ft 103kts
05-Jan-18 09:10 35.052232 -120.236594 66 5286ft 111kts
05-Jan-18 09:11 35.064312 -120.201123 66 5889ft 114kts
05-Jan-18 09:12 35.076491 -120.165336 66 6485ft 115kts
05-Jan-18 09:13 35.088188 -120.129926 67 7070ft 114kts
05-Jan-18 09:14 35.099614 -120.092959 69 7494ft 127kts
05-Jan-18 09:15 35.111313 -120.052724 70 7489ft 129kts
05-Jan-18 09:16 35.123211 -120.011782 70 7490ft 128kts
05-Jan-18 09:17 35.134892 -119.971607 70 7432ft 136kts
05-Jan-18 09:18 35.147976 -119.926797 70 7493ft 154kts
05-Jan-18 09:19 35.162790 -119.875995 70 7411ft 165kts
05-Jan-18 09:20 35.178027 -119.823731 70 7408ft 163kts
05-Jan-18 09:21 35.193252 -119.771524 70 7408ft 163kts
05-Jan-18 09:22 35.208492 -119.719275 70 7408ft 163kts
05-Jan-18 09:23 35.224145 -119.667339 68 7408ft 163kts
05-Jan-18 09:24 35.241239 -119.616989 66 7408ft 163kts
05-Jan-18 09:25 35.258773 -119.565587 66 7321ft 168kts
05-Jan-18 09:26 35.276258 -119.514246 66 6704ft 161kts
05-Jan-18 09:27 35.293131 -119.465443 66 6206ft 156kts
05-Jan-18 09:28 35.310134 -119.416549 66 5709ft 157kts
05-Jan-18 09:29 35.326959 -119.367477 65 5210ft 156kts
05-Jan-18 09:30 35.343046 -119.322568 66 4748ft 155kts
05-Jan-18 09:31 35.360584 -119.273626 66 4139ft 159kts
05-Jan-18 09:32 35.378570 -119.223433 66 3439ft 161kts
05-Jan-18 09:33 35.396618 -119.173071 66 2686ft 162kts
05-Jan-18 09:34 35.412708 -119.128117 66 1627ft 133kts
05-Jan-18 09:35 35.427271 -119.087381 67 1126ft 130kts
05-Jan-18 09:36 35.412375 -119.049797 132 1631ft 147kts
05-Jan-18 09:37 35.395180 -119.020130 23 1807ft 91kts
05-Jan-18 09:38 35.418744 -119.037842 313 833ft 106kts
05-Jan-18 09:39 35.436370 -119.059319 317 497ft 58kts
05-Jan-18 09:40 35.438241 -119.059397 104 497ft 12kts
05-Jan-18 09:41 35.437949 -119.055742 70 497ft 0kts

Navigation Log

Ident Type
Flight plan parsing failed, navigation log unavailable